Terminal Aerodrome Forecast
Issued by NWS

Home | Current Version | Previous Version | Text Only | Print | Product List | Glossary On
Versions: 1 2 3 4 5 6 7 8 9 10 11 12 13 14 15 16 17 18 19 20 21 22 23 24
000
FTUS45 KABQ 271100 RRA
TAFGUP
TAF
KGUP 271143Z 2712/2812 VRB04KT P6SM SCT050 BKN070
     FM271900 25012G20KT 6SM -SHSN BKN050 OVC070
     FM280100 22010KT P6SM VCSH SCT040 BKN060
     FM280900 22012G20KT P6SM VCSH BKN025 OVC040=

USA.gov is the U.S. government's official web portal to all federal, state and local government web resources and services.